createdAt,value
2022-10-13T00:02:52.017Z,17.23
2022-10-13T00:07:55.486Z,11.37
2022-10-13T00:12:58.529Z,10.25
2022-10-13T00:18:03.234Z,11.90
2022-10-13T00:23:06.342Z,12.67
2022-10-13T00:28:09.710Z,19.60
2022-10-13T00:33:14.398Z,10.93
2022-10-13T00:38:18.877Z,17.30
2022-10-13T00:43:24.720Z,10.97
2022-10-13T00:48:31.102Z,8.02
2022-10-13T00:53:37.543Z,17.10
2022-10-13T00:58:41.161Z,11.57
2022-10-13T01:03:45.831Z,10.70
2022-10-13T01:08:49.185Z,17.60
2022-10-13T01:13:59.977Z,15.07
2022-10-13T01:19:20.787Z,15.45
2022-10-13T01:24:43.683Z,14.02
2022-10-13T01:30:07.945Z,21.88
2022-10-13T01:35:16.312Z,14.27
2022-10-13T01:40:25.598Z,9.88
2022-10-13T01:45:36.011Z,15.05
2022-10-13T01:50:39.900Z,11.60
2022-10-13T01:55:51.078Z,14.10
2022-10-13T02:01:04.398Z,11.40
2022-10-13T02:06:16.320Z,17.05
2022-10-13T02:11:22.830Z,19.35
2022-10-13T02:16:29.743Z,14.50
2022-10-13T02:21:33.556Z,14.43
2022-10-13T02:26:39.435Z,16.98
2022-10-13T02:31:45.512Z,16.52
2022-10-13T02:36:48.632Z,13.65
2022-10-13T02:41:51.776Z,13.48
2022-10-13T02:46:56.507Z,15.50
2022-10-13T02:51:59.991Z,13.07
2022-10-13T02:57:03.278Z,12.73
2022-10-13T03:02:08.091Z,17.80
2022-10-13T03:07:11.963Z,16.73
2022-10-13T03:12:15.387Z,15.95
2022-10-13T03:17:20.629Z,16.17
2022-10-13T03:22:23.778Z,12.40
2022-10-13T03:27:28.418Z,12.77
2022-10-13T03:32:33.011Z,14.80
2022-10-13T03:37:36.285Z,14.63
2022-10-13T03:42:39.657Z,13.27
2022-10-13T03:47:44.206Z,14.13
2022-10-13T03:52:47.409Z,22.43
2022-10-13T03:57:50.559Z,10.70
2022-10-13T04:02:55.378Z,16.70
2022-10-13T04:07:58.411Z,15.73
2022-10-13T04:13:03.572Z,19.33
2022-10-13T04:18:09.215Z,14.05
2022-10-13T04:23:12.458Z,15.02
2022-10-13T04:28:24.003Z,21.33
2022-10-13T04:33:28.658Z,16.50
2022-10-13T04:38:32.120Z,17.40
2022-10-13T04:43:35.884Z,18.58
2022-10-13T04:48:40.993Z,14.52
2022-10-13T04:58:49.647Z,15.15
2022-10-13T05:03:55.575Z,14.15
2022-10-13T05:08:59.075Z,26.80
2022-10-13T05:14:02.525Z,15.30
2022-10-13T05:19:07.405Z,15.07
2022-10-13T05:24:13.700Z,12.30
2022-10-13T05:29:18.328Z,13.57
2022-10-13T05:34:22.820Z,19.60
2022-10-13T05:39:27.313Z,17.83
2022-10-13T05:44:30.495Z,15.98
2022-10-13T05:49:36.507Z,15.82
2022-10-13T05:54:42.039Z,16.30
2022-10-13T05:59:49.404Z,19.48
2022-10-13T06:04:57.563Z,21.00
2022-10-13T06:10:01.675Z,18.40
2022-10-13T06:15:05.603Z,20.63
2022-10-13T06:20:11.194Z,16.02
2022-10-13T06:30:17.965Z,19.08
2022-10-13T06:35:23.697Z,27.38
2022-10-13T06:40:26.839Z,28.73
2022-10-13T06:45:29.977Z,20.75
2022-10-13T06:50:34.735Z,14.02
2022-10-13T06:55:39.860Z,23.00
2022-10-13T07:00:44.040Z,17.42
2022-10-13T07:05:48.852Z,22.77
2022-10-13T07:10:52.229Z,25.10
2022-10-13T07:15:55.289Z,22.52
2022-10-13T07:21:00.454Z,26.65
2022-10-13T07:26:07.871Z,30.48
2022-10-13T07:31:13.758Z,34.15
2022-10-13T07:36:19.433Z,22.85
2022-10-13T07:41:23.021Z,24.90
2022-10-13T07:46:30.560Z,21.42
2022-10-13T07:51:35.383Z,19.05
2022-10-13T07:56:38.548Z,15.57
2022-10-13T08:01:43.593Z,15.85
2022-10-13T08:06:48.099Z,18.10
2022-10-13T08:11:51.303Z,18.90
2022-10-13T08:16:54.493Z,18.70
2022-10-13T08:22:00.272Z,19.40
2022-10-13T08:27:03.853Z,15.48
2022-10-13T08:32:07.159Z,16.77
2022-10-13T08:37:15.136Z,14.45
2022-10-13T08:42:22.172Z,16.35
2022-10-13T08:47:35.538Z,18.70
2022-10-13T08:52:49.042Z,15.93
2022-10-13T08:57:52.617Z,14.25
2022-10-13T09:03:19.494Z,15.10
2022-10-13T09:08:26.916Z,15.82
2022-10-13T09:13:30.132Z,15.80
2022-10-13T09:18:34.295Z,19.98
2022-10-13T09:23:42.005Z,12.57
2022-10-13T09:28:45.485Z,18.58
2022-10-13T09:33:59.104Z,15.32
2022-10-13T09:39:11.712Z,16.17
2022-10-13T09:44:18.883Z,13.75
2022-10-13T09:49:34.715Z,17.67
2022-10-13T09:54:47.079Z,18.80
2022-10-13T09:59:52.252Z,18.60
2022-10-13T10:05:00.979Z,20.85
2022-10-13T10:10:12.657Z,15.05
2022-10-13T10:15:20.229Z,16.70
2022-10-13T10:20:42.601Z,21.88
2022-10-13T10:25:51.695Z,16.83
2022-10-13T10:31:04.427Z,23.45
2022-10-13T11:06:34.372Z,20.37
2022-10-13T11:11:42.208Z,16.33
2022-10-13T11:17:09.806Z,14.52
2022-10-13T11:22:20.078Z,18.13
2022-10-13T11:27:40.446Z,19.45
2022-10-13T11:39:04.687Z,15.20
2022-10-13T11:44:16.803Z,12.75
2022-10-13T11:49:44.025Z,14.95
2022-10-13T11:54:54.354Z,15.63
2022-10-13T11:59:58.490Z,19.17
2022-10-13T12:12:27.402Z,15.60
2022-10-13T12:22:40.047Z,8.18
2022-10-13T12:27:48.099Z,10.07
2022-10-13T12:32:52.807Z,11.88
2022-10-13T12:37:56.971Z,9.75
2022-10-13T12:43:03.861Z,13.53
2022-10-13T12:48:26.557Z,13.00
2022-10-13T12:53:30.074Z,16.30
2022-10-13T12:58:35.925Z,13.00
2022-10-13T13:03:40.805Z,14.68
2022-10-13T13:13:49.409Z,16.80
2022-10-13T13:18:53.023Z,12.30
2022-10-13T13:23:57.056Z,12.60
2022-10-13T13:29:01.590Z,10.95
2022-10-13T13:34:04.779Z,11.35
2022-10-13T13:39:14.431Z,12.45
2022-10-13T13:44:20.399Z,14.10
2022-10-13T13:49:24.753Z,13.18
2022-10-13T13:54:27.890Z,11.88
2022-10-13T13:59:59.112Z,8.48
2022-10-13T14:05:02.479Z,12.85
2022-10-13T14:10:08.106Z,14.10
2022-10-13T14:15:12.746Z,13.50
2022-10-13T14:20:15.970Z,14.30
2022-10-13T14:25:20.695Z,12.50
2022-10-13T14:30:25.212Z,11.77
2022-10-13T14:35:29.291Z,7.60
2022-10-13T14:40:32.545Z,9.43
2022-10-13T14:45:37.055Z,11.00
2022-10-13T14:50:40.713Z,12.80
2022-10-13T14:55:45.207Z,10.98
2022-10-13T15:00:50.022Z,9.20
2022-10-13T15:05:53.276Z,13.88
2022-10-13T15:42:06.695Z,10.05
2022-10-13T15:54:22.685Z,11.57
2022-10-13T15:59:26.068Z,9.90
2022-10-13T16:04:33.506Z,10.38
2022-10-13T16:09:41.278Z,13.98
2022-10-13T16:14:44.596Z,9.57
2022-10-13T16:39:58.106Z,12.57
2022-10-13T17:00:11.222Z,14.68
2022-10-13T17:05:17.763Z,18.88
2022-10-13T17:10:21.782Z,15.77
2022-10-13T17:47:49.948Z,18.90
2022-10-13T17:57:56.977Z,16.38
2022-10-13T18:03:01.508Z,18.13
2022-10-13T18:08:04.946Z,13.33
2022-10-13T18:13:08.523Z,21.95
2022-10-13T18:18:14.927Z,15.13
2022-10-13T18:23:18.148Z,17.93
2022-10-13T18:28:21.567Z,15.95
2022-10-13T18:33:26.086Z,16.42
2022-10-13T18:38:29.348Z,13.40
2022-10-13T18:43:32.598Z,15.38
2022-10-13T18:48:37.183Z,13.07
2022-10-13T18:53:42.186Z,15.00
2022-10-13T18:58:46.680Z,18.83
2022-10-13T19:03:52.385Z,14.70
2022-10-13T19:08:56.721Z,17.45
2022-10-13T19:14:01.326Z,16.60
2022-10-13T19:26:37.959Z,21.38
2022-10-13T19:31:42.586Z,20.40
2022-10-13T22:10:41.160Z,16.17
2022-10-13T22:38:24.187Z,18.27
2022-10-13T22:43:27.536Z,26.63
2022-10-13T22:48:36.977Z,23.55
2022-10-13T22:53:47.410Z,22.90
2022-10-13T22:58:51.435Z,22.13
2022-10-13T23:03:56.685Z,29.75
2022-10-13T23:09:03.548Z,18.25
2022-10-13T23:14:06.917Z,20.55
2022-10-13T23:19:10.104Z,18.35
2022-10-13T23:24:14.874Z,24.23
2022-10-13T23:29:17.925Z,22.90
2022-10-13T23:34:21.176Z,23.58
2022-10-13T23:39:25.734Z,25.48
2022-10-13T23:44:30.024Z,22.13
2022-10-13T23:49:33.466Z,25.85
2022-10-13T23:54:37.989Z,23.58
